LIVT 201755Z 03011G21KT CAVOK 17/09 Q1016 RMK SCT SCT080 QUK / QUL / VIS MAR 20 KM VIS MIN 9999 LIVT 201655Z 03011G21KT CAVOK 18/09 Q1015 RMK BKN BKN070 QUK 3 QUL 2 NE VIS MAR 20 KM VIS MIN 9999 LIVT 201555Z 04010KT 9999 FEW040 19/10 Q1014 RMK BKN BKN060 QUK 3 QUL 2 NE VIS MAR 20 KM VIS MIN 9999 LIVT 201455Z 04009G19KT CAVOK 20/11 Q1014 RMK BKN BKN060 QUK 3 QUL 2 NE VIS MAR 20 KM VIS MIN 9999 LIVT 201355Z 05009KT CAVOK 21/11 Q1014 RMK BKN BKN070 QUK 3 QUL 2 NE VIS MAR 20 KM VIS MIN 9999 LIVT 201255Z 04008KT CAVOK 21/10 Q1014 RMK SCT SCT070 QUK 3 QUL 2 NE VIS MAR 20 KM VIS MIN 9999 LIVT 201155Z 03010KT CAVOK 21/10 Q1013 RMK SCT SCT070 QUK 3 QUL 2 NE VIS MAR 20 KM VIS MIN 9999 LIVT 201055Z 04009G19KT CAVOK 20/11 Q1013 RMK BKN BKN070 QUK 3 QUL 2 NE VIS MAR 20 KM VIS MIN 9999 LIVT 200955Z 04011G21KT CAVOK 20/11 Q1013 RMK BKN BKN060 QUK 3 QUL 2 NE VIS MAR 20 KM VIS MIN 9999 LIVT 200855Z 03010KT 9999 SCT040 19/12 Q1013 RMK BKN QUK 3 QUL 2 NE VIS MAR 20 KM VIS MIN 9999 LIVT 200755Z 04010G20KT 9999 BKN040 18/12 Q1012 RMK BKN QUK 3 QUL 2 NE VIS MAR 20 KM VIS MIN 9999 LIVT 200655Z 04011G22KT 9999 BKN040 18/13 Q1011 RMK BKN QUK 3 QUL 2 NE VIS MAR 20 KM VIS MIN 9999 LIVT 200555Z 04010KT 9999 SCT030 17/13 Q1011 RMK BKN QUK 3 QUL 2 NE VIS MAR 20 KM VIS MIN 9999 LIVT 191755Z 07001KT 9999 BKN030 20/19 Q1009 RMK OVC SCT060 QUK / QUL / VIS MAR 10 KM VIS MIN 9999 LIVT 191655Z 07002KT 9999 BKN030 21/19 Q1009 RMK BKN QUK 1 QUL 0 VIS MAR 10 KM VIS MIN 9999 LIVT 191555Z 00000KT 9999 -RA BKN030 21/20 Q1009 RMK OVC QUK 1 QUL 0 VIS MAR 10 KM VIS MIN 9999 LIVT 191455Z 00000KT 7000 -RA BKN030 22/21 Q1010 RMK OVC QUK 1 QUL 0 VIS MAR 7 KM VIS MIN 7000

METAR Messwerte

Zurück zur Übersicht

Ort
m ü. NN
Zeit Temperatur Taupunkt Rel.
Luftfeuchte
Luftdruck:
Altimeter
NN
Station
Wind in Beaufort
(Knoten)
Sichtweite
(Meter)
Wolken
(Meter über Grund)
Wettererscheinung
Triest
20
Mo 20.09. 19:5517959 %1016
1016
1014
NNO 4 (11) - 6 (21)>= 10000Nicht signifikant 
Triest
20
Mo 20.09. 18:5518956 %1015
1015
1013
NNO 4 (11) - 6 (21)>= 10000Nicht signifikant 
Triest
20
Mo 20.09. 17:55191056 %1014
1014
1012
NO 3 (10)>= 10000Stark bewölkt (1800)
Leicht bewölkt (1200)
 
Triest
20
Mo 20.09. 16:55201156 %1014
1014
1012
NO 3 (9) - 5 (19)>= 10000Nicht signifikant 
Triest
20
Mo 20.09. 15:55211153 %1014
1014
1012
NO 3 (9)>= 10000Nicht signifikant 
Triest
20
Mo 20.09. 14:55211049 %1014
1014
1012
NO 3 (8)>= 10000Nicht signifikant 
Triest
20
Mo 20.09. 13:55211049 %1013
1013
1011
NNO 3 (10)>= 10000Nicht signifikant 
Triest
20
Mo 20.09. 12:55201156 %1013
1013
1011
NO 3 (9) - 5 (19)>= 10000Nicht signifikant 
Triest
20
Mo 20.09. 11:55201156 %1013
1013
1011
NO 4 (11) - 6 (21)>= 10000Nicht signifikant 
Triest
20
Mo 20.09. 10:55191264 %1013
1013
1011
NNO 3 (10)>= 10000Wolkig (1200) 
Triest
20
Mo 20.09. 09:55181268 %1012
1012
1010
NO 3 (10) - 5 (20)>= 10000Stark bewölkt (1200) 
Triest
20
Mo 20.09. 08:55181373 %1011
1011
1009
NO 4 (11) - 6 (22)>= 10000Stark bewölkt (1200) 
Triest
20
Mo 20.09. 07:55171377 %1011
1011
1009
NO 3 (10)>= 10000Wolkig (910) 
Triest
20
So 19.09. 19:55201994 %1009
1009
1007
ONO 1 (1)>= 10000Wolkig (1800)
Stark bewölkt (910)
 
Triest
20
So 19.09. 18:55211988 %1009
1009
1007
ONO 1 (2)>= 10000Stark bewölkt (910) 
Triest
20
So 19.09. 17:55212094 %1009
1009
1007
Windstill>= 10000Stark bewölkt (910)Regen (schwach)
Triest
20
So 19.09. 16:55222194 %1010
1010
1008
Windstill7000Stark bewölkt (910)Regen (schwach)

Altimeter: Einstellung am Altimeter (Höhenmesser), die Höhe 0 muss auf diesen Luftdruckwert zeigen, damit das Gerät die Stationshöhe richtig anzeigt.

NN: Luftdruck reduziert auf "Normal Null", auf Meereshöhe, dieser von der Temperatur abhängige Wert wird bisweilen unkorrekt einfach als "Luftdruck" bezeichnet. Eigentlich nur eine fiktive Größe, die es erlaubt, Stationen auf unterschiedlichen Höhen miteinander zu vergleichen.

Station: Realer Luftdruck an der Station.